Time;durP1;ratioP1;P1;durP2;ratioP2;P2;SDS_P1;SDS_P2;PMS_P1;PMS_P2;Temp;Humidity;BMP_temperature;BMP_pressure;BME280_temperature;BME280_humidity;BME280_pressure;Samples;Min_cycle;Max_cycle;Signal;HPM_P1;HPM_P2
2022/03/29 00:00:28;;;;;;;3.78;3.37;;;5.80;1.40;;;6.64;73.63;95270.64;647832;216;31532;-80
2022/03/29 00:03:16;;;;;;;4.40;3.60;;;5.80;1.40;;;6.76;72.77;95261.61;619131;226;42520;-77
2022/03/29 00:06:12;;;;;;;5.13;3.63;;;6.10;1.40;;;6.87;73.09;95259.50;644562;217;31561;-79
2022/03/29 00:08:56;;;;;;;3.87;2.83;;;6.20;1.40;;;7.04;71.57;95257.45;646685;213;31624;-79
2022/03/29 00:11:40;;;;;;;6.22;3.47;;;6.50;1.40;;;7.23;70.45;95250.09;620065;226;32030;-78
2022/03/29 00:14:22;;;;;;;4.10;3.20;;;6.60;1.40;;;7.25;70.44;95247.28;649219;212;31893;-79
2022/03/29 00:17:04;;;;;;;5.70;3.25;;;6.60;1.40;;;7.25;69.65;95244.35;620435;226;31988;-79
2022/03/29 00:19:46;;;;;;;6.50;3.85;;;6.50;1.40;;;7.19;70.99;95239.67;647588;216;42182;-79
2022/03/29 00:22:29;;;;;;;6.57;3.90;;;6.50;1.40;;;7.14;71.34;95238.11;647368;216;31529;-78
2022/03/29 00:25:13;;;;;;;4.22;3.03;;;6.40;1.40;;;7.06;71.77;95235.38;648231;212;31579;-79
2022/03/29 00:27:55;;;;;;;4.47;2.97;;;6.30;1.40;;;7.01;72.32;95234.63;632695;222;31825;-77
2022/03/29 00:30:38;;;;;;;6.30;3.95;;;6.30;1.40;;;6.97;73.05;95233.17;620772;222;31989;-79
2022/03/29 00:35:53;;;;;;;5.05;2.70;;;6.10;1.40;;;6.88;73.48;95231.66;648613;212;31587;-79
2022/03/29 00:38:39;;;;;;;4.22;3.65;;;6.10;1.40;;;6.87;73.79;95231.80;647824;216;31603;-79
2022/03/29 00:41:20;;;;;;;6.15;3.70;;;6.10;1.40;;;6.89;73.45;95229.81;648738;216;31522;-79
2022/03/29 00:44:06;;;;;;;4.65;3.53;;;6.10;1.40;;;6.87;74.60;95231.16;620949;226;42710;-79
2022/03/29 00:46:47;;;;;;;3.40;3.10;;;6.10;1.40;;;6.87;74.40;95228.25;647023;216;42190;-79
2022/03/29 00:49:29;;;;;;;3.58;2.80;;;6.20;1.40;;;6.87;74.85;95223.02;642942;217;42175;-78
2022/03/29 00:52:11;;;;;;;4.70;3.40;;;6.20;1.40;;;6.88;74.85;95217.30;647742;212;31563;-79
2022/03/29 00:54:55;;;;;;;7.62;4.22;;;6.20;1.40;;;6.88;74.48;95222.63;649047;212;32752;-79
2022/03/29 00:57:37;;;;;;;6.80;4.00;;;6.10;1.40;;;6.76;75.25;95218.02;647276;212;31568;-79
2022/03/29 01:00:21;;;;;;;8.07;3.70;;;5.90;1.40;;;6.78;74.51;95216.27;618445;226;32100;-77
2022/03/29 01:03:08;;;;;;;4.32;3.20;;;5.90;1.40;;;6.84;74.67;95218.14;644082;217;32099;-78
2022/03/29 01:05:50;;;;;;;3.17;2.78;;;6.00;1.40;;;6.82;75.32;95210.89;649012;216;31711;-79
2022/03/29 01:08:32;;;;;;;5.43;3.78;;;6.10;1.40;;;6.88;74.91;95211.12;636220;212;31714;-79
2022/03/29 01:11:19;;;;;;;4.30;2.92;;;6.20;1.40;;;6.88;75.11;95210.98;646765;212;32005;-78
2022/03/29 01:14:07;;;;;;;6.07;3.25;;;6.20;1.40;;;6.89;75.11;95198.92;620020;226;31881;-79
2022/03/29 01:19:37;;;;;;;7.10;3.20;;;6.20;1.40;;;6.84;75.29;95190.60;620687;222;31971;-78
2022/03/29 01:22:25;;;;;;;5.10;3.40;;;6.20;1.40;;;6.82;75.50;95186.11;646837;216;42338;-76
2022/03/29 01:25:15;;;;;;;3.40;2.30;;;6.10;1.40;;;6.79;75.48;95178.55;619013;222;31903;-79
2022/03/29 01:27:56;;;;;;;4.87;3.05;;;6.00;1.40;;;6.70;76.23;95173.85;619860;226;32500;-79
2022/03/29 01:30:39;;;;;;;4.65;3.78;;;5.90;1.40;;;6.61;76.58;95172.69;620888;226;31912;-78
2022/03/29 01:35:54;;;;;;;2.83;2.62;;;5.80;1.40;;;6.57;77.21;95167.88;647127;216;31589;-76
2022/03/29 01:38:36;;;;;;;6.30;3.80;;;5.90;1.40;;;6.64;76.84;95158.05;647135;212;31588;-75
2022/03/29 01:41:17;;;;;;;3.70;2.35;;;6.00;1.40;;;6.66;76.87;95161.16;646780;216;31631;-76
2022/03/29 01:44:08;;;;;;;5.25;2.72;;;6.00;1.40;;;6.66;76.96;95150.81;648200;216;31589;-79
2022/03/29 01:46:55;;;;;;;3.80;2.33;;;6.00;1.40;;;6.62;76.48;95148.16;646684;212;33205;-75
2022/03/29 01:49:43;;;;;;;3.80;3.40;;;5.90;1.40;;;6.59;76.67;95144.27;647108;212;31801;-79
2022/03/29 01:52:25;;;;;;;4.93;3.55;;;5.90;1.40;;;6.51;77.05;95141.77;649184;216;31599;-79
2022/03/29 01:55:08;;;;;;;7.07;2.95;;;5.70;1.40;;;6.43;77.93;95135.70;620048;226;32011;-78
2022/03/29 01:57:50;;;;;;;4.20;3.60;;;5.70;1.40;;;6.41;78.06;95140.02;621174;222;31911;-79
2022/03/29 02:00:32;;;;;;;3.60;3.30;;;5.70;1.40;;;6.36;78.28;95132.27;633383;222;31814;-80
2022/03/29 02:03:16;;;;;;;3.62;3.10;;;5.70;1.40;;;6.38;78.67;95137.69;646762;216;31753;-79
2022/03/29 02:05:59;;;;;;;3.87;2.70;;;5.70;1.40;;;6.33;78.62;95127.18;621515;226;31918;-79
2022/03/29 02:08:40;;;;;;;2.85;2.53;;;5.60;1.40;;;6.27;79.25;95130.94;649544;216;31568;-78
2022/03/29 02:11:27;;;;;;;4.43;2.70;;;5.50;1.40;;;6.19;79.60;95126.61;646795;212;31596;-78
2022/03/29 02:14:11;;;;;;;4.22;2.72;;;5.40;1.40;;;6.01;80.85;95122.23;648188;216;32054;-78
2022/03/29 02:16:53;;;;;;;5.28;2.85;;;5.30;1.40;;;6.00;80.94;95120.58;649344;212;31787;-79
2022/03/29 02:19:41;;;;;;;4.05;3.25;;;5.20;1.40;;;5.95;81.30;95115.44;634975;216;31721;-79
2022/03/29 02:22:23;;;;;;;2.78;2.58;;;5.20;1.40;;;5.94;81.62;95113.77;620486;222;31932;-79
2022/03/29 02:25:05;;;;;;;4.87;2.70;;;5.20;1.40;;;6.00;81.56;95106.85;617423;224;31896;-79
2022/03/29 02:27:47;;;;;;;4.75;2.95;;;5.30;1.40;;;6.14;81.10;95102.55;647336;216;31540;-79
2022/03/29 02:30:29;;;;;;;3.05;2.75;;;5.50;1.40;;;6.22;81.00;95097.61;647778;212;31584;-78
2022/03/29 02:35:52;;;;;;;3.42;2.92;;;5.60;1.40;;;6.12;81.28;95091.55;646693;216;32188;-79
2022/03/29 02:38:39;;;;;;;5.07;3.60;;;5.50;1.40;;;6.03;81.85;95088.62;643637;216;31604;-81
2022/03/29 02:41:23;;;;;;;4.72;3.10;;;5.20;1.40;;;5.97;82.61;95090.48;648650;216;31558;-80
2022/03/29 02:44:05;;;;;;;3.40;3.10;;;5.20;1.40;;;5.91;83.45;95087.98;647419;212;32137;-79
2022/03/29 02:46:47;;;;;;;2.40;2.20;;;5.20;1.40;;;5.91;83.38;95088.78;620292;223;31896;-79
2022/03/29 02:49:31;;;;;;;3.95;2.53;;;5.20;1.40;;;5.86;84.48;95092.57;648814;212;32171;-78
2022/03/29 02:52:13;;;;;;;6.75;3.00;;;5.20;1.40;;;5.85;84.35;95085.09;647477;216;33503;-79
2022/03/29 02:54:54;;;;;;;7.50;3.55;;;5.10;1.40;;;5.80;84.85;95084.23;621524;222;31998;-78
2022/03/29 02:57:38;;;;;;;4.05;2.80;;;5.10;1.40;;;5.75;85.78;95082.73;648506;216;31561;-78
2022/03/29 03:00:26;;;;;;;2.62;2.30;;;5.00;1.40;;;5.77;85.55;95080.38;643536;215;31889;-79
2022/03/29 03:03:10;;;;;;;3.03;2.20;;;5.00;1.40;;;5.77;86.24;95082.05;648396;212;31558;-79
2022/03/29 03:05:52;;;;;;;4.22;2.67;;;5.00;1.40;;;5.75;86.95;95077.73;648022;212;31553;-79
2022/03/29 03:08:34;;;;;;;3.92;3.17;;;5.10;1.40;;;5.75;87.09;95078.17;636653;216;31708;-79
2022/03/29 03:11:16;;;;;;;5.37;2.50;;;5.10;1.40;;;5.74;87.79;95076.45;644327;215;31597;-79
2022/03/29 03:13:58;;;;;;;3.00;2.70;;;5.10;1.40;;;5.71;87.58;95075.09;646936;216;31585;-77
2022/03/29 03:16:45;;;;;;;2.80;2.50;;;5.00;1.40;;;5.69;88.69;95072.30;646992;216;31590;-77
2022/03/29 03:19:33;;;;;;;2.40;2.20;;;5.00;1.40;;;5.78;88.07;95071.02;620644;226;32840;-78
2022/03/29 03:22:21;;;;;;;4.00;2.97;;;5.10;1.40;;;5.80;88.61;95069.22;646523;216;31582;-78
2022/03/29 03:25:09;;;;;;;4.82;2.75;;;5.10;1.40;;;5.85;88.99;95069.77;648273;216;31574;-79
2022/03/29 03:27:51;;;;;;;3.90;2.00;;;5.20;1.40;;;5.83;89.29;95064.09;648788;212;31680;-79
2022/03/29 03:30:33;;;;;;;2.80;1.83;;;5.10;1.40;;;5.83;89.49;95060.10;646716;216;31522;-79
2022/03/29 03:36:02;;;;;;;4.32;3.35;;;5.10;1.40;;;5.75;89.97;95054.87;647843;212;31605;-79
2022/03/29 03:38:46;;;;;;;3.80;2.62;;;5.00;1.40;;;5.68;90.62;95047.73;647725;212;31588;-78
2022/03/29 03:41:28;;;;;;;4.80;2.75;;;5.00;1.40;;;5.64;90.67;95050.30;632396;222;31876;-78
2022/03/29 03:44:11;;;;;;;4.47;2.75;;;4.90;1.40;;;5.60;91.08;95044.10;648619;216;31581;-79
2022/03/29 03:46:57;;;;;;;4.00;2.80;;;4.90;1.40;;;5.54;92.18;95039.23;646284;212;32098;-78
2022/03/29 03:49:44;;;;;;;2.92;2.42;;;4.80;1.40;;;5.58;91.90;95040.14;620855;222;31982;-79
2022/03/29 03:52:25;;;;;;;3.95;3.10;;;4.90;1.40;;;5.60;91.31;95040.45;648455;216;31630;-79
2022/03/29 03:55:08;;;;;;;6.30;4.03;;;4.90;1.40;;;5.66;91.50;95036.84;646122;216;31592;-79
2022/03/29 03:57:54;;;;;;;2.75;2.55;;;5.00;1.40;;;5.69;91.64;95036.11;619806;226;32064;-77
2022/03/29 04:00:36;;;;;;;6.37;3.10;;;5.00;1.40;;;5.70;91.89;95035.56;647528;216;31584;-77
2022/03/29 04:03:20;;;;;;;4.00;3.60;;;5.10;1.40;;;5.69;92.02;95035.36;621257;226;32476;-79
2022/03/29 04:06:07;;;;;;;3.75;3.20;;;5.10;1.40;;;5.70;91.66;95028.20;646938;216;31590;-78
2022/03/29 04:08:49;;;;;;;4.80;2.97;;;5.10;1.40;;;5.75;91.43;95019.70;648935;216;31588;-78
2022/03/29 04:12:03;;;;;;;4.12;3.00;;;5.10;1.40;;;5.84;90.74;95018.50;631173;220;31618;-80
2022/03/29 04:15:01;;;;;;;3.65;2.75;;;5.10;1.40;;;5.80;91.50;95007.58;646808;216;31557;-78
2022/03/29 04:17:43;;;;;;;3.55;3.25;;;5.20;1.40;;;5.75;91.72;95004.64;647397;216;31569;-77
2022/03/29 04:20:25;;;;;;;5.05;2.53;;;5.00;1.40;;;5.79;91.77;94998.55;648450;212;31545;-80
2022/03/29 04:25:44;;;;;;;3.12;2.33;;;5.20;1.40;;;5.92;90.52;94997.46;646781;216;31552;-79
2022/03/29 04:28:29;;;;;;;4.80;2.45;;;5.30;1.40;;;5.99;90.00;94994.41;646535;212;32207;-77
2022/03/29 04:31:31;;;;;;;3.95;3.50;;;5.30;1.40;;;5.86;90.84;94994.55;629242;220;31885;-79
2022/03/29 04:36:07;;;;;;;3.30;2.40;;;5.10;1.40;;;5.81;91.36;94991.05;653398;216;31756;-79
2022/03/29 04:38:57;;;;;;;2.58;2.37;;;5.10;1.40;;;5.82;91.23;94986.67;622437;222;31965;-79
2022/03/29 04:41:43;;;;;;;3.10;2.50;;;5.10;1.40;;;5.80;91.61;94985.58;650680;212;31629;-79
2022/03/29 04:44:34;;;;;;;3.53;2.70;;;5.10;1.40;;;5.84;91.57;94981.92;645672;216;41862;-77
2022/03/29 04:47:20;;;;;;;3.00;2.70;;;5.20;1.40;;;5.86;91.41;94975.93;621831;222;31893;-79
2022/03/29 04:50:18;;;;;;;3.00;2.33;;;5.20;1.40;;;5.96;90.43;94977.33;649946;216;32276;-80
2022/03/29 04:56:01;;;;;;;4.25;2.75;;;5.30;1.40;;;5.93;90.81;94969.58;651926;216;31606;-79
2022/03/29 04:58:53;;;;;;;5.60;3.47;;;5.20;1.40;;;5.98;90.66;94968.53;649672;216;31577;-80
2022/03/29 05:01:49;;;;;;;5.47;2.75;;;5.30;1.40;;;6.01;90.65;94973.94;648341;216;31589;-79
2022/03/29 05:04:35;;;;;;;4.50;2.80;;;5.20;1.40;;;6.01;90.41;94970.27;647443;212;31533;-79
2022/03/29 05:07:23;;;;;;;3.33;2.57;;;5.30;1.40;;;6.02;90.64;94964.55;648613;216;32008;-79
2022/03/29 05:10:14;;;;;;;2.87;2.60;;;5.30;1.40;;;5.95;91.38;94958.64;622303;226;31926;-82
2022/03/29 05:13:12;;;;;;;4.00;2.60;;;5.20;1.40;;;6.01;90.56;94963.33;634194;220;42337;-79
2022/03/29 05:16:02;;;;;;;3.50;2.58;;;5.20;1.40;;;6.10;90.57;94960.20;647501;216;31571;-78
2022/03/29 05:19:03;;;;;;;3.33;2.53;;;5.40;1.40;;;6.09;90.39;94954.99;624010;222;32010;-80
2022/03/29 05:21:49;;;;;;;1.98;1.80;;;5.30;1.40;;;6.05;91.01;94953.00;619348;226;31949;-80
2022/03/29 05:24:37;;;;;;;3.10;2.80;;;5.30;1.40;;;6.14;90.74;94953.77;647155;216;42183;-80
2022/03/29 05:27:20;;;;;;;5.82;2.80;;;5.50;1.40;;;6.21;90.44;94957.23;646202;216;31819;-77
2022/03/29 05:30:02;;;;;;;4.25;3.70;;;5.50;1.40;;;6.28;90.05;94954.72;646839;216;31819;-77
2022/03/29 05:32:51;;;;;;;5.00;2.72;;;5.60;1.40;;;6.32;89.83;94950.47;647208;216;31554;-81
2022/03/29 05:48:59;;;;;;;4.25;2.42;;;5.80;1.40;;;6.66;88.03;94949.92;622894;226;32171;-80
2022/03/29 05:51:42;;;;;;;4.25;2.60;;;5.90;1.40;;;6.72;87.70;94955.58;620344;222;32051;-79
2022/03/29 05:54:31;;;;;;;2.78;2.05;;;5.90;1.40;;;6.77;87.29;94955.02;621501;226;32047;-81
2022/03/29 05:57:17;;;;;;;3.10;2.40;;;6.00;1.40;;;6.89;86.70;94958.38;647567;216;42544;-80
2022/03/29 05:59:59;;;;;;;3.70;3.03;;;6.10;1.40;;;6.97;86.61;94960.30;647183;212;32292;-78
2022/03/29 06:02:40;;;;;;;4.07;2.42;;;6.00;1.40;;;6.97;86.96;94961.05;647689;216;31687;-81
2022/03/29 06:05:27;;;;;;;4.82;3.45;;;5.90;1.40;;;6.96;87.27;94960.68;648736;216;31578;-79
2022/03/29 06:10:50;;;;;;;5.70;3.20;;;6.10;1.40;;;7.17;85.63;94968.02;621480;222;32006;-79
2022/03/29 06:13:34;;;;;;;5.37;2.95;;;6.30;1.40;;;7.33;84.97;94967.51;647350;216;31559;-78
2022/03/29 06:16:20;;;;;;;5.50;3.10;;;6.40;1.40;;;7.48;84.29;94966.84;648355;212;31567;-79
2022/03/29 06:19:00;;;;;;;4.50;3.37;;;6.50;1.40;;;7.58;83.79;94967.16;647635;216;31565;-80
2022/03/29 06:21:42;;;;;;;5.05;2.78;;;6.50;1.40;;;7.67;82.94;94965.46;647967;212;31605;-80
2022/03/29 06:24:24;;;;;;;5.37;2.90;;;6.70;1.40;;;7.83;82.00;94967.98;649666;212;42138;-80
2022/03/29 06:27:07;;;;;;;5.25;3.20;;;6.80;1.40;;;8.00;80.77;94962.72;619141;226;42873;-78
2022/03/29 06:29:52;;;;;;;4.40;3.60;;;7.00;1.40;;;8.21;80.54;94963.89;625624;222;23541;-80
2022/03/29 06:32:46;;;;;;;5.28;3.33;;;7.10;1.40;;;8.44;80.06;94964.33;619771;226;31941;-77
2022/03/29 06:35:52;;;;;;;3.67;3.08;;;7.20;1.40;;;8.39;80.27;94963.08;647910;216;31571;-80
2022/03/29 06:38:34;;;;;;;7.82;3.65;;;7.30;1.40;;;8.48;80.99;94962.09;620255;226;32343;-80
2022/03/29 06:41:16;;;;;;;4.15;2.83;;;7.30;1.40;;;8.53;81.16;94957.82;647677;212;42168;-79
2022/03/29 06:43:57;;;;;;;4.20;3.00;;;7.50;1.40;;;8.55;82.01;94960.48;619949;226;31918;-78
2022/03/29 06:46:42;;;;;;;5.95;3.70;;;7.60;1.40;;;8.58;82.22;94953.08;647946;212;42201;-79
2022/03/29 06:49:24;;;;;;;4.87;3.10;;;7.70;1.40;;;8.69;80.71;94954.41;648521;216;42307;-78
2022/03/29 06:52:10;;;;;;;5.20;2.87;;;7.80;1.40;;;8.73;80.21;94951.94;648001;215;31593;-79
2022/03/29 06:54:57;;;;;;;6.45;3.12;;;7.90;1.40;;;8.84;79.98;94946.79;643388;216;31584;-79
2022/03/29 06:57:39;;;;;;;4.55;2.75;;;8.00;1.40;;;8.99;80.34;94942.29;647359;216;31587;-77
2022/03/29 07:00:21;;;;;;;4.63;3.03;;;8.10;1.40;;;9.31;80.53;94939.41;647732;212;31624;-81
2022/03/29 07:03:03;;;;;;;5.30;3.65;;;8.30;1.40;;;9.57;78.21;94933.94;642324;214;31577;-81
2022/03/29 07:05:48;;;;;;;4.50;2.75;;;8.60;1.40;;;9.79;73.93;94935.44;619711;222;31886;-81
2022/03/29 07:08:27;;;;;;;3.40;3.10;;;8.90;1.40;;;10.00;72.82;94929.19;612190;222;42727;-81
2022/03/29 07:13:57;;;;;;;5.32;3.22;;;9.40;1.40;;;10.53;69.99;94927.17;619241;226;42733;-80
2022/03/29 07:16:41;;;;;;;4.10;3.10;;;9.70;1.40;;;10.80;68.31;94923.64;648275;212;31540;-81
2022/03/29 07:19:27;;;;;;;3.70;3.10;;;10.00;1.40;;;11.07;66.11;94917.13;620256;226;32081;-81
2022/03/29 07:22:16;;;;;;;5.30;3.13;;;10.30;1.40;;;11.37;64.63;94917.59;620460;226;32249;-81
2022/03/29 07:25:05;;;;;;;7.20;3.57;;;10.60;1.40;;;11.77;64.72;94914.47;619545;225;32045;-80
2022/03/29 07:27:53;;;;;;;5.87;3.47;;;11.00;1.40;;;12.42;67.08;94913.41;648824;216;31578;-80
2022/03/29 07:30:35;;;;;;;7.80;3.20;;;11.60;1.40;;;12.50;62.56;94917.43;647499;215;31570;-79
2022/03/29 07:35:52;;;;;;;6.72;2.90;;;11.80;1.40;;;12.79;58.38;94917.93;647616;212;31585;-81
2022/03/29 07:38:34;;;;;;;5.80;3.20;;;11.80;1.40;;;12.80;57.49;94919.33;620553;225;31898;-80
2022/03/29 07:41:15;;;;;;;4.67;3.60;;;11.70;1.40;;;12.71;57.85;94921.12;647641;216;42192;-80
2022/03/29 07:43:57;;;;;;;3.75;3.05;;;11.70;1.40;;;12.96;57.51;94916.97;648990;212;31692;-81
2022/03/29 07:46:39;;;;;;;5.50;3.20;;;11.90;1.40;;;13.07;55.30;94914.86;649091;212;32298;-80
2022/03/29 07:49:21;;;;;;;6.90;3.50;;;12.00;1.40;;;13.18;55.57;94910.34;624924;226;23505;-79
2022/03/29 07:52:02;;;;;;;5.07;3.33;;;12.20;1.40;;;13.42;54.26;94913.39;619576;222;32086;-81
2022/03/29 07:54:44;;;;;;;6.00;3.93;;;12.40;1.40;;;13.68;54.39;94907.50;621523;215;43274;-81
2022/03/29 07:57:29;;;;;;;7.03;4.30;;;12.80;1.40;;;13.81;52.15;94910.24;620166;226;31878;-79
2022/03/29 08:03:04;;;;;;;5.00;3.67;;;13.10;1.40;;;14.19;50.92;94908.55;649750;212;31572;-80
2022/03/29 08:05:47;;;;;;;5.57;3.60;;;13.30;1.40;;;14.15;51.37;94903.03;632697;222;32128;-79
2022/03/29 08:08:28;;;;;;;9.52;4.03;;;13.40;1.40;;;14.45;50.11;94901.87;636391;212;31747;-79
2022/03/29 08:11:09;;;;;;;7.85;3.50;;;13.60;1.40;;;14.69;49.66;94896.16;650252;212;42170;-81
2022/03/29 08:13:54;;;;;;;6.80;3.70;;;13.80;1.40;;;14.77;48.75;94899.78;648042;212;32129;-79
2022/03/29 08:16:37;;;;;;;6.57;3.67;;;13.80;1.40;;;14.72;48.99;94894.95;647052;216;31569;-79
2022/03/29 08:19:19;;;;;;;5.57;3.60;;;13.90;1.40;;;14.85;48.46;94895.91;620084;222;32448;-81
2022/03/29 08:22:01;;;;;;;5.23;3.60;;;13.90;1.40;;;14.98;47.81;94899.81;648248;216;31587;-79
2022/03/29 08:24:43;;;;;;;4.50;3.40;;;14.00;1.40;;;15.12;48.82;94908.84;620885;226;32486;-79
2022/03/29 08:27:25;;;;;;;6.85;3.75;;;14.20;1.40;;;15.32;48.39;94913.15;620954;226;32044;-81
2022/03/29 08:30:08;;;;;;;4.55;3.45;;;14.40;1.40;;;15.23;47.27;94901.45;647665;212;31603;-81
2022/03/29 08:32:52;;;;;;;6.57;3.80;;;14.30;1.40;;;15.11;47.20;94891.14;619550;225;31892;-81
2022/03/29 08:35:50;;;;;;;7.75;4.20;;;14.20;1.40;;;15.12;45.44;94884.11;620159;226;32071;-80
2022/03/29 08:38:32;;;;;;;5.37;4.00;;;14.50;1.40;;;15.40;45.34;94878.16;647167;216;31622;-80
2022/03/29 08:41:14;;;;;;;4.50;3.30;;;14.80;1.40;;;15.59;44.93;94880.33;646871;216;31554;-80
2022/03/29 08:43:56;;;;;;;6.57;3.60;;;15.00;1.40;;;15.86;45.36;94880.53;648135;212;31536;-81
2022/03/29 08:46:41;;;;;;;6.15;3.78;;;15.20;1.40;;;16.03;44.64;94884.90;648533;212;42470;-79
2022/03/29 08:50:10;;;;;;;7.40;3.47;;;15.20;1.40;;;16.26;44.91;94883.34;620993;222;31896;-80
2022/03/29 08:52:55;;;;;;;5.20;4.03;;;15.70;1.40;;;16.50;44.50;94880.26;648826;212;37397;-81
2022/03/29 08:55:41;;;;;;;7.50;3.80;;;16.00;1.40;;;17.01;43.44;94880.02;648438;216;31625;-79
2022/03/29 08:58:21;;;;;;;7.20;4.28;;;16.10;1.40;;;16.51;43.11;94875.83;648701;212;31551;-80
2022/03/29 09:01:06;;;;;;;5.47;3.80;;;15.70;1.40;;;16.69;43.79;94873.94;647176;216;31576;-79
2022/03/29 09:04:12;;;;;;;5.55;3.67;;;15.70;1.40;;;16.62;42.71;94879.01;648489;212;31961;-80
2022/03/29 09:06:55;;;;;;;5.90;3.60;;;15.70;1.40;;;16.74;42.68;94875.89;649106;212;31896;-79
2022/03/29 09:09:38;;;;;;;4.97;4.12;;;15.90;1.40;;;17.08;43.20;94883.16;647647;216;31828;-81
2022/03/29 09:12:20;;;;;;;5.65;3.70;;;16.40;1.40;;;16.97;43.24;94878.34;620972;222;31870;-79
2022/03/29 09:15:01;;;;;;;6.30;3.30;;;16.00;1.40;;;16.57;42.88;94880.98;621137;226;32047;-79
2022/03/29 09:17:43;;;;;;;7.87;3.92;;;15.80;1.40;;;16.88;43.21;94875.45;648007;216;31814;-80
2022/03/29 09:20:24;;;;;;;7.12;3.80;;;16.10;1.40;;;17.36;42.71;94872.69;648443;216;31619;-80
2022/03/29 09:23:06;;;;;;;6.47;4.10;;;16.40;1.40;;;17.07;42.40;94874.41;647352;216;31557;-81
2022/03/29 09:25:47;;;;;;;4.22;3.40;;;16.20;1.40;;;17.09;42.23;94870.58;619723;226;32036;-80
2022/03/29 09:28:35;;;;;;;5.82;3.83;;;16.30;1.40;;;17.35;42.97;94867.80;647992;216;32256;-79
2022/03/29 09:31:18;;;;;;;5.95;3.78;;;16.60;1.40;;;17.83;41.96;94860.91;647827;212;31678;-79
2022/03/29 09:35:53;;;;;;;6.72;4.22;;;17.40;1.40;;;18.12;40.68;94856.04;619773;226;33151;-81
2022/03/29 09:38:41;;;;;;;7.65;4.75;;;17.60;1.40;;;18.56;39.40;94852.66;649530;212;31557;-79
2022/03/29 09:41:26;;;;;;;7.35;4.60;;;17.60;1.40;;;18.27;39.91;94853.24;674708;208;31286;-80
2022/03/29 09:44:06;;;;;;;6.75;4.43;;;17.30;1.40;;;18.21;39.60;94838.65;620276;222;32191;-81
2022/03/29 09:46:59;;;;;;;7.57;4.60;;;17.30;1.40;;;18.36;39.35;94856.18;647868;216;31568;-80
2022/03/29 09:49:53;;;;;;;5.60;3.83;;;17.20;1.40;;;18.12;39.54;94839.91;647297;212;31571;-79
2022/03/29 09:52:41;;;;;;;10.27;5.60;;;17.10;1.40;;;18.30;40.00;94835.06;647987;216;42772;-79
2022/03/29 09:55:28;;;;;;;8.27;4.70;;;17.60;1.40;;;18.12;39.25;94830.61;647550;216;31615;-81
2022/03/29 09:58:13;;;;;;;7.87;4.43;;;17.30;1.40;;;18.31;39.73;94831.77;620675;222;32133;-80
2022/03/29 10:00:55;;;;;;;5.47;3.90;;;17.40;1.40;;;18.57;39.09;94833.05;622525;226;32061;-80
2022/03/29 10:03:40;;;;;;;7.83;4.20;;;17.30;1.40;;;18.69;38.10;94820.09;620117;222;32667;-81
2022/03/29 10:06:24;;;;;;;6.65;4.70;;;17.30;1.40;;;18.32;38.60;94825.50;631770;222;32335;-80
2022/03/29 10:12:09;;;;;;;9.20;4.40;;;17.50;1.40;;;18.70;37.20;94811.89;647902;212;31685;-81
2022/03/29 10:14:56;;;;;;;5.78;4.35;;;17.70;1.40;;;19.14;37.67;94807.63;648143;212;31575;-80
2022/03/29 10:17:38;;;;;;;7.25;4.87;;;17.80;1.40;;;18.58;37.65;94804.42;620988;222;32099;-81
2022/03/29 10:20:20;;;;;;;6.45;3.37;;;17.30;1.40;;;17.98;37.13;94806.33;648137;216;31596;-82
2022/03/29 10:23:02;;;;;;;5.70;3.77;;;16.90;1.40;;;17.79;36.90;94808.16;620444;222;32467;-80
2022/03/29 10:28:21;;;;;;;6.95;3.90;;;16.60;1.40;;;17.68;38.12;94807.73;648773;212;31545;-79
2022/03/29 10:31:00;;;;;;;8.02;3.83;;;16.70;1.40;;;17.78;39.12;94806.76;621749;222;31885;-80
2022/03/29 10:38:58;;;;;;;5.60;4.03;;;16.60;1.40;;;17.43;38.48;94798.87;648487;212;31632;-79
2022/03/29 10:41:53;;;;;;;8.02;4.00;;;16.50;1.40;;;17.77;38.55;94802.20;643828;215;31597;-81
2022/03/29 10:44:49;;;;;;;7.70;3.50;;;16.80;1.40;;;17.78;39.33;94803.19;646600;212;31578;-80
2022/03/29 10:47:33;;;;;;;10.50;4.30;;;16.90;1.40;;;17.92;37.90;94800.23;620219;225;32351;-81
2022/03/29 10:50:17;;;;;;;7.78;4.70;;;16.90;1.40;;;17.92;37.11;94793.65;646794;212;31566;-79
2022/03/29 10:53:03;;;;;;;9.20;4.20;;;16.90;1.40;;;18.09;37.44;94785.86;646953;212;31555;-80
2022/03/29 10:55:47;;;;;;;7.28;4.00;;;16.90;1.40;;;17.73;37.78;94780.75;648434;216;31548;-80
2022/03/29 10:58:29;;;;;;;6.35;4.00;;;16.80;1.40;;;18.00;37.49;94786.34;646797;216;31636;-81
2022/03/29 11:01:15;;;;;;;6.93;4.37;;;16.90;1.40;;;18.08;37.20;94779.77;619759;222;31900;-76
2022/03/29 11:03:59;;;;;;;5.12;3.95;;;17.00;1.40;;;18.35;37.70;94775.78;622287;226;42666;-81
2022/03/29 11:07:04;;;;;;;11.38;3.70;;;17.10;1.40;;;18.07;36.17;94774.55;633318;222;31753;-80
2022/03/29 11:09:49;;;;;;;6.18;4.45;;;17.10;1.40;;;18.05;36.84;94777.91;647778;212;31598;-80
2022/03/29 11:12:38;;;;;;;7.75;4.22;;;17.10;1.40;;;18.53;37.10;94772.09;647592;212;31598;-80
2022/03/29 11:15:44;;;;;;;6.43;4.70;;;17.50;1.40;;;18.16;36.60;94772.63;649400;212;42195;-81
2022/03/29 11:18:40;;;;;;;5.18;3.80;;;17.10;1.40;;;18.47;36.68;94767.33;621082;222;31899;-81
2022/03/29 11:21:31;;;;;;;6.93;4.05;;;17.50;1.40;;;18.78;36.10;94764.75;648110;216;31580;-80
2022/03/29 11:24:17;;;;;;;6.25;4.47;;;17.90;1.40;;;19.22;35.87;94764.69;618826;222;31885;-80
2022/03/29 11:26:59;;;;;;;6.40;4.12;;;18.10;1.40;;;18.86;35.98;94774.67;647225;216;42204;-79
2022/03/29 11:29:41;;;;;;;8.50;4.40;;;17.70;1.40;;;18.81;35.70;94765.17;646654;216;31972;-81
2022/03/29 11:32:24;;;;;;;6.05;3.72;;;17.70;1.40;;;18.95;34.58;94766.94;648157;216;31586;-80
2022/03/29 11:35:57;;;;;;;6.50;4.30;;;17.60;1.40;;;18.70;35.31;94754.13;648227;216;31615;-80
2022/03/29 11:38:44;;;;;;;7.53;4.00;;;17.60;1.40;;;18.98;35.41;94745.02;648711;216;31519;-80
2022/03/29 11:41:30;;;;;;;8.23;3.97;;;17.90;1.40;;;19.71;34.01;94738.81;621375;222;31916;-81
2022/03/29 11:44:14;;;;;;;6.03;4.22;;;18.30;1.40;;;18.95;35.44;94741.92;621019;226;32049;-79
2022/03/29 11:46:59;;;;;;;5.40;3.30;;;17.90;1.40;;;18.72;35.49;94743.98;617376;226;31941;-79
2022/03/29 11:49:45;;;;;;;7.03;4.50;;;17.80;1.40;;;19.24;34.36;94730.45;648492;212;31539;-80
2022/03/29 11:52:33;;;;;;;6.55;4.20;;;18.30;1.40;;;19.44;34.05;94730.06;620435;226;32186;-80
2022/03/29 11:55:15;;;;;;;5.83;4.00;;;18.30;1.40;;;18.99;34.58;94727.32;619206;226;31841;-80
2022/03/29 11:58:00;;;;;;;5.35;3.80;;;18.00;1.40;;;19.05;34.65;94717.68;621138;226;31919;-80
2022/03/29 12:00:42;;;;;;;6.93;4.70;;;17.90;1.40;;;18.56;35.14;94716.50;648654;216;32085;-79
2022/03/29 12:03:33;;;;;;;7.30;4.70;;;17.80;1.40;;;18.86;35.07;94717.80;649762;216;31498;-80
2022/03/29 12:06:21;;;;;;;5.20;3.60;;;17.90;1.40;;;19.28;33.62;94707.38;648477;212;31587;-79
2022/03/29 12:09:06;;;;;;;5.32;3.45;;;18.40;1.40;;;19.20;34.37;94711.73;610116;226;32200;-81
2022/03/29 12:11:55;;;;;;;5.60;3.92;;;18.00;1.40;;;19.21;34.61;94702.07;648946;216;31598;-80
2022/03/29 12:14:38;;;;;;;5.62;3.72;;;18.00;1.40;;;19.04;34.80;94699.89;649510;212;31566;-80
2022/03/29 12:17:20;;;;;;;6.83;4.20;;;17.90;1.40;;;19.18;34.09;94694.48;620651;222;31905;-81
2022/03/29 12:20:02;;;;;;;5.57;3.90;;;18.30;1.40;;;19.87;34.01;94684.80;620010;226;31910;-79
2022/03/29 12:22:44;;;;;;;5.40;4.12;;;18.90;1.40;;;20.05;33.48;94687.05;620349;226;32625;-80
2022/03/29 12:25:32;;;;;;;5.07;3.97;;;18.80;1.40;;;19.92;34.28;94682.82;647985;212;31582;-80
2022/03/29 12:28:21;;;;;;;6.60;4.37;;;18.80;1.40;;;19.77;33.41;94672.75;619619;222;32024;-79
2022/03/29 12:31:01;;;;;;;5.78;4.37;;;18.50;1.40;;;19.68;33.54;94670.66;646842;212;42209;-79
2022/03/29 12:36:06;;;;;;;5.15;3.70;;;18.50;1.40;;;19.88;33.29;94658.46;616325;226;31909;-79
2022/03/29 12:38:49;;;;;;;7.00;4.53;;;18.80;1.40;;;20.01;33.35;94655.95;619650;226;42570;-79
2022/03/29 12:41:44;;;;;;;9.02;4.40;;;19.10;1.40;;;19.67;33.85;94650.98;646796;216;31582;-79
2022/03/29 12:44:36;;;;;;;7.53;4.10;;;18.20;1.40;;;19.61;33.67;94644.90;648347;216;31635;-80
2022/03/29 12:47:22;;;;;;;4.80;3.92;;;18.20;1.40;;;19.66;34.22;94645.55;646742;216;43349;-82
2022/03/29 12:50:06;;;;;;;7.60;3.58;;;18.00;1.40;;;19.23;33.88;94649.31;647156;212;31704;-80